Time;durP1;ratioP1;P1;durP2;ratioP2;P2;SDS_P1;SDS_P2;PMS_P1;PMS_P2;Temp;Humidity;BMP_temperature;BMP_pressure;BME280_temperature;BME280_humidity;BME280_pressure;Samples;Min_cycle;Max_cycle;Signal;HPM_P1;HPM_P2
2022/06/08 00:01:20;;;;;;;24.77;17.85;;;;;;;19.19;65.15;98969.38;5032644;28;20030;-76
2022/06/08 00:03:51;;;;;;;25.47;17.67;;;;;;;19.28;64.57;98962.47;5033610;28;20033;-76
2022/06/08 00:06:18;;;;;;;28.02;18.00;;;;;;;19.35;64.03;98951.13;5033759;28;20546;-76
2022/06/08 00:08:43;;;;;;;30.67;17.90;;;;;;;19.36;63.92;98955.56;5033797;28;20476;-75
2022/06/08 00:11:09;;;;;;;29.30;19.88;;;;;;;19.11;64.88;98947.91;5032293;28;20036;-78
2022/06/08 00:13:36;;;;;;;27.73;16.70;;;;;;;19.22;64.67;98950.72;5033739;28;20417;-75
2022/06/08 00:16:02;;;;;;;35.90;16.33;;;;;;;19.07;65.54;98952.78;5033172;28;20120;-75
2022/06/08 00:18:28;;;;;;;20.17;14.10;;;;;;;18.91;64.89;98942.63;5033610;28;20022;-75
2022/06/08 00:20:54;;;;;;;24.63;15.75;;;;;;;18.66;66.01;98937.75;5033868;28;20025;-75
2022/06/08 00:23:20;;;;;;;17.63;14.48;;;;;;;18.69;66.33;98940.97;5033528;28;20035;-75
2022/06/08 00:25:46;;;;;;;15.02;12.70;;;;;;;18.91;65.13;98948.28;5033690;28;20423;-75
2022/06/08 00:28:13;;;;;;;21.55;13.23;;;;;;;18.59;66.08;98934.09;5034214;28;20070;-75
2022/06/08 00:30:38;;;;;;;19.45;13.93;;;;;;;18.39;66.69;98940.13;5033657;28;20025;-75
2022/06/08 00:33:04;;;;;;;19.40;12.57;;;;;;;18.73;65.86;98941.81;5033432;28;20044;-75
2022/06/08 00:35:29;;;;;;;19.20;11.73;;;;;;;18.84;65.43;98942.63;5032838;28;20049;-75
2022/06/08 00:37:55;;;;;;;14.60;11.18;;;;;;;18.89;65.38;98932.91;5033357;28;20103;-75
2022/06/08 00:40:25;;;;;;;18.40;11.52;;;;;;;18.93;65.36;98940.19;5031934;28;20025;-75
2022/06/08 00:42:50;;;;;;;;;;;;;;;18.89;65.62;98938.59;5033839;28;20033;-75
2022/06/08 00:45:23;;;;;;;18.65;10.70;;;;;;;18.73;65.86;98927.66;5031282;28;19920;-75
2022/06/08 00:47:54;;;;;;;15.73;11.32;;;;;;;18.43;66.30;98931.66;5030356;28;20033;-75
2022/06/08 00:50:24;;;;;;;21.90;11.48;;;;;;;17.99;67.70;98936.34;5033181;28;20031;-75
2022/06/08 00:52:51;;;;;;;19.40;13.30;;;;;;;17.55;69.88;98933.31;5031823;28;20060;-75
2022/06/08 00:55:20;;;;;;;22.15;11.85;;;;;;;17.68;69.77;98937.47;5031539;28;20029;-75
2022/06/08 00:57:53;;;;;;;17.10;10.25;;;;;;;17.86;68.88;98950.03;5033195;28;20033;-75
2022/06/08 01:00:28;;;;;;;18.60;10.68;;;;;;;17.68;68.67;98950.78;5031955;28;20493;-75
2022/06/08 01:02:54;;;;;;;22.85;10.40;;;;;;;17.72;69.13;98947.97;5033047;28;20087;-75
2022/06/08 01:05:28;;;;;;;20.02;10.30;;;;;;;17.35;70.19;98950.59;5023616;28;20030;-75
2022/06/08 01:07:57;;;;;;;16.90;9.57;;;;;;;17.02;70.97;98931.81;5023540;28;20072;-75
2022/06/08 01:10:27;;;;;;;17.48;9.20;;;;;;;16.68;72.48;98958.94;5031702;28;20469;-74
2022/06/08 01:12:53;;;;;;;17.42;9.75;;;;;;;16.54;73.29;98934.19;5032917;28;20500;-75
2022/06/08 01:15:25;;;;;;;11.73;8.40;;;;;;;16.94;71.79;98933.72;5031986;28;20040;-75
2022/06/08 01:17:51;;;;;;;18.38;9.65;;;;;;;16.73;72.94;98938.00;5033032;28;20057;-75
2022/06/08 01:20:17;;;;;;;25.38;10.93;;;;;;;16.28;74.77;98946.41;5032944;28;20096;-75
2022/06/08 01:22:43;;;;;;;16.00;9.25;;;;;;;16.23;75.44;98947.59;5032806;28;20388;-75
2022/06/08 01:25:10;;;;;;;12.95;9.40;;;;;;;16.21;75.48;98949.97;5032454;28;20026;-75
2022/06/08 01:28:06;;;;;;;12.35;9.27;;;;;;;15.68;77.16;98945.28;5032602;28;20028;-75
2022/06/08 01:30:47;;;;;;;22.42;9.57;;;;;;;15.63;78.27;98938.00;5032459;28;20032;-75
2022/06/08 01:33:33;;;;;;;16.85;9.82;;;;;;;15.67;77.85;98933.19;5032611;28;20080;-75
2022/06/08 01:36:26;;;;;;;18.23;10.13;;;;;;;15.70;78.14;98931.63;5032180;28;20508;-75
2022/06/08 01:39:08;;;;;;;17.90;9.90;;;;;;;15.50;79.42;98934.59;5032641;28;20025;-75
2022/06/08 01:42:18;;;;;;;22.95;10.70;;;;;;;15.46;79.38;98922.47;5030948;28;20056;-75
2022/06/08 01:48:10;;;;;;;16.80;9.60;;;;;;;15.52;78.92;98937.03;5032816;28;20122;-75
2022/06/08 01:51:04;;;;;;;22.23;12.32;;;;;;;15.47;79.00;98928.88;5032017;28;20045;-75
2022/06/08 01:54:07;;;;;;;28.65;11.18;;;;;;;15.60;78.72;98946.41;5030917;28;20018;-75
2022/06/08 01:56:54;;;;;;;21.30;10.73;;;;;;;15.54;79.01;98946.72;5029044;28;20046;-75
2022/06/08 01:59:31;;;;;;;23.92;11.18;;;;;;;15.82;78.41;98945.47;5032308;28;20028;-75
2022/06/08 02:02:18;;;;;;;13.45;9.43;;;;;;;15.90;77.23;98942.75;5030760;28;20385;-75
2022/06/08 02:04:52;;;;;;;13.90;10.02;;;;;;;15.84;76.76;98937.44;5031853;28;20032;-75
2022/06/08 02:07:28;;;;;;;17.33;10.13;;;;;;;15.90;76.99;98945.59;5030529;28;20511;-75
2022/06/08 02:10:27;;;;;;;15.10;10.25;;;;;;;15.70;77.49;98949.34;5030432;28;20021;-75
2022/06/08 02:12:58;;;;;;;17.80;10.35;;;;;;;15.18;80.16;98957.47;5031972;28;20029;-75
2022/06/08 02:15:24;;;;;;;19.10;10.23;;;;;;;15.27;80.23;98952.38;5031986;28;20026;-75
2022/06/08 02:17:56;;;;;;;21.35;10.70;;;;;;;15.55;79.41;98945.50;5032034;28;20047;-75
2022/06/08 02:21:03;;;;;;;20.02;9.55;;;;;;;15.81;77.89;98949.50;5030418;28;20025;-75
2022/06/08 02:23:42;;;;;;;19.13;9.48;;;;;;;15.71;78.02;98950.97;4974040;28;20030;-75
2022/06/08 02:26:13;;;;;;;18.17;9.77;;;;;;;15.67;77.63;98938.84;5029178;28;20496;-75
2022/06/08 02:28:52;;;;;;;12.40;9.52;;;;;;;15.52;78.39;98940.66;5035911;28;20102;-75
2022/06/08 02:31:26;;;;;;;14.75;9.25;;;;;;;15.30;79.53;98950.81;5035829;28;20519;-75
2022/06/08 02:36:50;;;;;;;20.88;10.63;;;;;;;15.44;79.31;98947.38;5035420;28;20098;-75
2022/06/08 02:39:22;;;;;;;13.43;9.27;;;;;;;15.53;78.75;98945.09;5035661;28;20451;-75
2022/06/08 02:41:51;;;;;;;14.93;9.75;;;;;;;15.48;78.63;98936.97;5035852;28;20033;-75
2022/06/08 02:44:26;;;;;;;21.60;10.27;;;;;;;15.26;79.19;98945.13;5034419;28;20507;-75
2022/06/08 02:47:04;;;;;;;11.77;10.25;;;;;;;14.82;81.20;98945.63;5034748;28;20121;-74
2022/06/08 02:49:33;;;;;;;13.40;9.77;;;;;;;14.77;82.08;98949.56;5030318;28;20045;-75
2022/06/08 02:52:03;;;;;;;14.90;10.07;;;;;;;14.69;82.95;98954.22;5033836;28;20385;-75
2022/06/08 02:54:30;;;;;;;15.05;11.95;;;;;;;14.55;83.43;98951.19;5035709;28;20439;-74
2022/06/08 02:57:20;;;;;;;17.08;11.63;;;;;;;14.42;83.77;98942.09;5033932;28;20033;-75
2022/06/08 03:00:05;;;;;;;21.30;12.77;;;;;;;14.62;84.02;98951.31;5035234;28;20037;-74
2022/06/08 03:02:41;;;;;;;27.13;12.00;;;;;;;14.74;82.63;98948.34;5035205;28;20040;-75
2022/06/08 03:05:12;;;;;;;21.65;11.00;;;;;;;14.69;82.59;98936.53;5033739;28;20485;-75
2022/06/08 03:07:47;;;;;;;15.50;11.57;;;;;;;14.37;83.45;98942.41;5034981;28;20025;-75
2022/06/08 03:10:15;;;;;;;24.98;11.52;;;;;;;14.22;83.98;98942.16;5034902;28;20040;-75
2022/06/08 03:12:51;;;;;;;16.75;10.88;;;;;;;14.14;84.18;98954.44;5020810;28;20041;-75
2022/06/08 03:15:22;;;;;;;14.60;11.13;;;;;;;13.98;84.91;98948.91;5015197;28;20075;-74
2022/06/08 03:17:49;;;;;;;15.82;10.23;;;;;;;14.11;85.04;98941.13;5019018;28;20036;-74
2022/06/08 03:20:16;;;;;;;18.30;11.70;;;;;;;14.20;84.72;98952.97;5033528;28;20116;-74
2022/06/08 03:22:41;;;;;;;17.92;11.50;;;;;;;14.24;84.24;98948.22;5033168;28;20029;-75
2022/06/08 03:25:09;;;;;;;15.50;11.02;;;;;;;14.25;84.66;98943.41;5033827;28;20025;-73
2022/06/08 03:27:37;;;;;;;17.30;11.85;;;;;;;14.32;84.01;98940.72;5034694;28;20041;-76
2022/06/08 03:30:04;;;;;;;18.85;11.25;;;;;;;14.41;83.77;98938.47;5034768;28;20408;-78
2022/06/08 03:32:30;;;;;;;13.85;10.35;;;;;;;14.42;83.37;98942.91;5033071;28;20029;-77
2022/06/08 03:34:55;;;;;;;11.88;10.25;;;;;;;14.55;83.18;98939.91;5033599;28;20456;-76
2022/06/08 03:37:21;;;;;;;13.68;10.93;;;;;;;14.60;83.36;98939.63;5034294;28;20030;-76
2022/06/08 03:39:46;;;;;;;16.48;10.77;;;;;;;14.25;84.34;98932.16;5033893;28;20057;-75
2022/06/08 03:42:12;;;;;;;19.02;11.75;;;;;;;14.21;85.58;98940.53;5033063;28;20037;-76
2022/06/08 03:44:37;;;;;;;17.60;10.32;;;;;;;14.24;85.42;98942.59;5032774;28;20162;-82
2022/06/08 03:47:18;;;;;;;13.18;10.10;;;;;;;14.27;85.87;98953.09;5034019;28;20025;-76
2022/06/08 03:49:45;;;;;;;14.15;11.30;;;;;;;14.45;85.61;98959.03;5033596;28;20110;-76
2022/06/08 03:52:15;;;;;;;15.80;10.70;;;;;;;14.39;86.10;98957.75;5032682;28;20025;-77
2022/06/08 03:54:45;;;;;;;26.77;12.35;;;;;;;14.35;86.47;98956.84;5032731;28;20026;-77
2022/06/08 03:57:12;;;;;;;16.25;11.20;;;;;;;14.30;86.66;98952.34;5034299;28;20025;-76
2022/06/08 03:59:41;;;;;;;16.20;12.55;;;;;;;14.33;87.05;98950.78;5032771;28;20033;-77
2022/06/08 04:02:09;;;;;;;20.13;11.48;;;;;;;14.50;87.00;98965.56;5032912;28;20048;-77
2022/06/08 04:04:36;;;;;;;29.48;12.48;;;;;;;14.57;86.68;98966.50;5030431;28;20025;-76
2022/06/08 04:07:01;;;;;;;23.38;11.85;;;;;;;14.64;86.79;98962.19;5031995;28;20013;-76
2022/06/08 04:09:27;;;;;;;14.32;11.57;;;;;;;14.51;86.50;98961.56;5031360;28;20036;-77
2022/06/08 04:11:52;;;;;;;11.65;10.43;;;;;;;14.61;86.66;98972.19;5032787;28;20567;-76
2022/06/08 04:14:18;;;;;;;11.77;10.57;;;;;;;14.70;86.53;98967.13;5031176;28;20049;-76
2022/06/08 04:16:43;;;;;;;12.68;9.80;;;;;;;14.78;87.17;98968.09;5032921;28;20036;-77
2022/06/08 04:19:09;;;;;;;18.08;10.70;;;;;;;14.77;86.82;98966.44;5033480;28;20030;-74
2022/06/08 04:21:34;;;;;;;13.55;10.77;;;;;;;14.99;86.38;98967.66;5033698;28;20489;-75
2022/06/08 04:24:00;;;;;;;12.07;10.93;;;;;;;15.09;86.08;98956.94;5033141;28;20024;-75
2022/06/08 04:26:27;;;;;;;17.23;11.05;;;;;;;15.30;84.52;98962.06;5032973;28;20404;-75
2022/06/08 04:28:53;;;;;;;14.25;10.45;;;;;;;15.47;83.65;98962.72;5033076;28;20029;-74
2022/06/08 04:31:20;;;;;;;12.25;9.05;;;;;;;15.64;83.49;98966.97;5033492;28;20032;-75
2022/06/08 04:33:45;;;;;;;15.15;9.88;;;;;;;15.82;81.67;98964.41;5032830;28;20129;-74
2022/06/08 04:36:12;;;;;;;24.70;10.43;;;;;;;16.03;80.73;98974.34;5033133;28;20041;-74
2022/06/08 04:38:38;;;;;;;14.68;9.88;;;;;;;16.11;80.80;98976.88;5033224;28;20083;-74
2022/06/08 04:41:05;;;;;;;18.13;9.65;;;;;;;16.06;80.22;98980.03;5033306;28;20033;-74
2022/06/08 04:43:31;;;;;;;14.23;9.38;;;;;;;16.06;81.25;98982.88;5031569;28;20032;-74
2022/06/08 04:45:57;;;;;;;17.65;10.85;;;;;;;16.28;80.44;98983.91;5031875;28;20116;-74
2022/06/08 04:48:23;;;;;;;12.60;8.63;;;;;;;16.44;79.56;98985.69;5032129;28;20416;-74
2022/06/08 04:50:48;;;;;;;10.35;9.25;;;;;;;16.39;79.73;98984.03;5031939;28;20032;-74
2022/06/08 04:53:15;;;;;;;14.30;10.93;;;;;;;16.39;79.02;98978.38;5031235;28;20481;-74
2022/06/08 04:55:40;;;;;;;15.63;9.15;;;;;;;16.42;78.74;98977.63;5032386;28;20026;-74
2022/06/08 04:58:06;;;;;;;12.98;9.48;;;;;;;16.67;77.52;98974.25;5032397;28;20026;-74
2022/06/08 05:00:32;;;;;;;14.80;9.10;;;;;;;16.92;75.80;98981.31;5031460;28;20030;-74
2022/06/08 05:02:58;;;;;;;14.63;8.30;;;;;;;16.93;75.88;98977.28;5032509;28;20531;-75
2022/06/08 05:05:30;;;;;;;10.07;9.02;;;;;;;16.77;76.89;98972.72;5032045;28;20420;-74
2022/06/08 05:07:56;;;;;;;9.30;8.40;;;;;;;17.08;75.22;98961.28;5032701;28;20029;-75
2022/06/08 05:10:24;;;;;;;8.23;7.43;;;;;;;17.35;72.62;98973.22;5031522;28;20064;-74
2022/06/08 05:12:49;;;;;;;12.73;8.93;;;;;;;17.43;72.70;98968.41;5031949;28;20038;-74
2022/06/08 05:15:23;;;;;;;10.02;6.95;;;;;;;17.85;70.80;98965.38;5032342;28;20034;-74
2022/06/08 05:17:49;;;;;;;10.82;8.15;;;;;;;18.14;70.70;98959.91;5032441;28;20029;-74
2022/06/08 05:20:16;;;;;;;10.55;7.32;;;;;;;18.16;68.02;98961.13;5031063;28;20033;-74
2022/06/08 05:22:43;;;;;;;13.80;7.65;;;;;;;18.03;69.42;98963.50;5029791;28;20044;-74
2022/06/08 05:25:11;;;;;;;10.40;7.45;;;;;;;18.24;69.91;98968.41;5031728;28;20021;-74
2022/06/08 05:27:38;;;;;;;8.48;6.80;;;;;;;18.50;67.99;98969.28;5030110;28;20105;-74
2022/06/08 05:30:05;;;;;;;8.52;6.70;;;;;;;18.75;67.01;98964.88;5029496;28;20075;-74
2022/06/08 05:32:31;;;;;;;8.45;6.45;;;;;;;18.95;65.79;98968.13;5025503;28;20072;-74
2022/06/08 05:34:56;;;;;;;8.38;6.40;;;;;;;19.24;64.98;98967.34;5022216;28;20022;-75
2022/06/08 05:37:22;;;;;;;8.35;6.28;;;;;;;19.55;65.30;98967.66;5027586;28;20420;-74
2022/06/08 05:39:47;;;;;;;10.15;5.85;;;;;;;19.58;61.80;98973.34;5031085;28;20059;-75
2022/06/08 05:42:12;;;;;;;9.25;5.93;;;;;;;19.63;62.70;98964.44;5029950;28;20033;-75
2022/06/08 05:44:38;;;;;;;6.47;5.85;;;;;;;19.69;61.31;98967.66;5030869;28;20083;-75
2022/06/08 05:47:04;;;;;;;5.90;5.40;;;;;;;19.90;60.43;98963.09;5031290;28;20108;-75
2022/06/08 05:49:33;;;;;;;13.82;5.85;;;;;;;20.24;60.72;98973.94;5029987;28;20059;-73
2022/06/08 05:51:59;;;;;;;6.47;4.93;;;;;;;20.45;59.59;98963.69;5019702;28;20497;-74
2022/06/08 05:54:25;;;;;;;7.43;5.70;;;;;;;20.62;59.47;98956.28;5028080;28;20052;-74
2022/06/08 05:56:50;;;;;;;5.72;5.13;;;;;;;20.81;58.85;98954.97;5026175;28;20041;-74
2022/06/08 05:59:16;;;;;;;8.73;5.18;;;;;;;21.01;57.04;98957.25;5015598;28;20064;-73
2022/06/08 06:01:41;;;;;;;5.68;5.10;;;;;;;21.09;57.91;98955.94;5028863;28;20033;-74
2022/06/08 06:04:07;;;;;;;6.38;4.97;;;;;;;20.82;55.30;98962.25;5029966;28;20034;-73
2022/06/08 06:06:34;;;;;;;8.88;5.43;;;;;;;21.08;56.70;98950.69;5027972;28;20086;-73
2022/06/08 06:09:00;;;;;;;8.32;5.22;;;;;;;21.40;56.67;98958.09;5031677;28;20031;-73
2022/06/08 06:11:26;;;;;;;9.93;5.22;;;;;;;21.34;55.23;98956.94;5029947;28;20029;-74
2022/06/08 06:13:51;;;;;;;6.13;4.65;;;;;;;20.96;55.94;98966.19;5027649;28;20496;-78
2022/06/08 06:16:17;;;;;;;6.45;4.97;;;;;;;21.24;54.67;98956.63;5031677;28;20400;-76
2022/06/08 06:18:42;;;;;;;11.25;5.07;;;;;;;21.30;53.15;98951.28;5031622;28;20041;-75
2022/06/08 06:21:16;;;;;;;6.88;5.18;;;;;;;21.09;53.92;98958.00;5030633;28;20036;-77
2022/06/08 06:23:41;;;;;;;6.35;5.40;;;;;;;21.52;54.51;98951.88;5026726;28;20052;-75
2022/06/08 06:26:07;;;;;;;6.15;4.75;;;;;;;21.77;53.18;98955.72;5027842;28;20026;-75
2022/06/08 06:28:32;;;;;;;9.57;5.28;;;;;;;21.74;51.98;98958.19;5030770;28;20029;-76
2022/06/08 06:30:58;;;;;;;8.20;4.93;;;;;;;21.94;53.18;98951.03;5028308;28;20109;-80
2022/06/08 06:33:24;;;;;;;5.88;4.20;;;;;;;21.96;51.85;98957.94;5030584;28;20033;-78
2022/06/08 06:35:49;;;;;;;7.10;4.70;;;;;;;21.82;52.33;98952.38;5030738;28;20046;-77
2022/06/08 06:38:15;;;;;;;6.47;5.25;;;;;;;22.13;52.04;98960.97;5031121;28;20045;-77
2022/06/08 06:40:40;;;;;;;6.05;4.75;;;;;;;22.34;52.05;98954.16;5031197;28;20026;-79
2022/06/08 06:43:06;;;;;;;7.05;4.78;;;;;;;22.48;51.93;98943.78;5028141;28;20123;-78
2022/06/08 06:45:31;;;;;;;7.85;5.07;;;;;;;22.62;51.89;98945.66;5021445;28;20041;-79
2022/06/08 06:47:58;;;;;;;4.90;4.50;;;;;;;22.77;50.91;98944.19;5030446;28;20112;-78
2022/06/08 06:50:25;;;;;;;8.18;5.07;;;;;;;22.83;49.81;98938.81;5029853;28;20029;-78
2022/06/08 06:52:52;;;;;;;7.88;5.72;;;;;;;22.97;51.02;98940.63;5030827;28;20032;-79
2022/06/08 06:55:24;;;;;;;5.68;5.18;;;;;;;23.12;50.15;98936.28;5030732;28;20021;-79
2022/06/08 06:57:50;;;;;;;5.88;4.50;;;;;;;23.10;49.65;98929.38;5030699;28;20029;-84
2022/06/08 07:00:16;;;;;;;10.57;5.35;;;;;;;23.13;49.88;98923.63;5029063;28;20029;-83
2022/06/08 07:02:43;;;;;;;5.50;4.97;;;;;;;23.26;48.87;98935.22;5022631;28;20103;-82
2022/06/08 07:05:16;;;;;;;6.78;4.90;;;;;;;23.24;49.07;98931.19;5030338;28;20097;-77
2022/06/08 07:07:42;;;;;;;5.15;4.65;;;;;;;23.18;48.72;98922.31;5030072;28;20116;-77
2022/06/08 07:10:08;;;;;;;5.03;4.40;;;;;;;23.20;47.99;98917.00;5030749;28;20112;-77
2022/06/08 07:12:33;;;;;;;5.22;4.38;;;;;;;23.29;48.81;98922.19;5030307;28;20052;-78
2022/06/08 07:14:59;;;;;;;9.82;4.72;;;;;;;23.52;48.58;98920.50;5033488;28;20116;-79
2022/06/08 07:17:25;;;;;;;4.90;4.20;;;;;;;23.44;47.00;98907.63;5033869;28;20528;-78
2022/06/08 07:19:51;;;;;;;11.75;5.40;;;;;;;23.64;47.96;98921.91;5034879;28;20067;-78
2022/06/08 07:22:17;;;;;;;5.93;4.57;;;;;;;23.76;47.96;98923.28;5028383;28;20021;-78
2022/06/08 07:24:43;;;;;;;6.28;4.78;;;;;;;23.89;47.39;98915.72;5030937;28;20033;-78
2022/06/08 07:27:09;;;;;;;5.70;5.15;;;;;;;23.91;47.41;98913.22;5028682;28;20025;-76
2022/06/08 07:29:34;;;;;;;6.15;4.68;;;;;;;24.17;47.66;98919.22;5029841;28;20021;-76
2022/06/08 07:32:00;;;;;;;5.00;4.50;;;;;;;24.15;46.52;98918.84;5029531;28;20112;-75
2022/06/08 07:34:27;;;;;;;5.82;4.93;;;;;;;24.09;45.91;98930.00;5016381;28;20033;-76
2022/06/08 07:36:53;;;;;;;8.73;5.20;;;;;;;24.12;46.04;98925.44;5022772;28;20049;-75
2022/06/08 07:39:19;;;;;;;9.07;5.75;;;;;;;24.33;45.82;98917.63;5041215;28;20074;-75
2022/06/08 07:41:47;;;;;;;11.77;5.82;;;;;;;24.38;45.99;98920.78;5032846;28;20059;-75
2022/06/08 07:44:14;;;;;;;5.28;4.63;;;;;;;24.55;46.71;98915.06;5033530;28;20498;-75
2022/06/08 07:46:40;;;;;;;9.90;5.45;;;;;;;24.56;46.77;98902.41;5047647;28;20029;-76
2022/06/08 07:51:53;;;;;;;7.68;5.30;;;;;;;24.91;45.59;98914.22;5034119;28;20032;-75
2022/06/08 07:54:24;;;;;;;9.55;4.82;;;;;;;24.86;45.13;98928.25;5030211;28;20475;-75
2022/06/08 07:56:51;;;;;;;6.95;4.85;;;;;;;24.87;46.02;98910.66;5031643;28;20113;-76
2022/06/08 07:59:18;;;;;;;4.82;4.32;;;;;;;25.05;45.08;98915.91;5038691;28;20034;-76
2022/06/08 08:01:44;;;;;;;5.88;4.93;;;;;;;24.86;43.78;98925.38;5027904;28;20025;-73
2022/06/08 08:04:09;;;;;;;5.40;4.90;;;;;;;24.64;43.95;98920.19;5021725;28;20117;-77
2022/06/08 08:06:34;;;;;;;5.43;4.60;;;;;;;24.83;44.35;98917.72;5031068;28;20030;-79
2022/06/08 08:09:00;;;;;;;8.60;4.93;;;;;;;24.86;44.54;98913.94;5024518;28;20025;-77
2022/06/08 08:11:27;;;;;;;9.43;5.25;;;;;;;24.88;45.54;98923.69;5031774;28;20041;-77
2022/06/08 08:13:53;;;;;;;8.50;5.38;;;;;;;24.83;45.37;98926.28;5032531;28;20171;-75
2022/06/08 08:16:19;;;;;;;7.07;5.40;;;;;;;24.85;44.96;98920.94;5033180;28;20037;-76
2022/06/08 08:18:48;;;;;;;13.43;5.40;;;;;;;24.99;45.50;98925.50;5028002;28;20029;-76
2022/06/08 08:21:13;;;;;;;6.05;4.90;;;;;;;25.19;44.97;98925.38;5032162;28;20400;-76
2022/06/08 08:23:39;;;;;;;7.45;4.60;;;;;;;25.18;44.67;98915.19;5032441;28;20038;-78
2022/06/08 08:26:04;;;;;;;9.13;4.70;;;;;;;25.30;43.36;98917.31;5031341;28;20059;-78
2022/06/08 08:28:30;;;;;;;6.07;5.22;;;;;;;25.27;45.02;98908.81;5031421;28;20038;-79
2022/06/08 08:30:55;;;;;;;8.90;4.40;;;;;;;25.26;42.53;98913.75;5032786;28;20488;-78
2022/06/08 08:33:21;;;;;;;6.63;4.40;;;;;;;25.41;42.19;98921.94;5030812;28;20033;-79
2022/06/08 08:35:46;;;;;;;5.97;3.95;;;;;;;25.46;41.88;98913.63;5030682;28;20058;-79
2022/06/08 08:38:12;;;;;;;4.65;3.92;;;;;;;25.37;42.50;98910.59;5032637;28;20123;-80
2022/06/08 08:40:54;;;;;;;14.13;4.25;;;;;;;25.68;42.71;98913.06;5031288;28;20519;-79
2022/06/08 08:43:23;;;;;;;7.03;4.43;;;;;;;25.81;41.06;98904.47;5032642;28;20033;-78
2022/06/08 08:46:30;;;;;;;10.10;4.15;;;;;;;25.64;40.57;98910.28;5021249;28;20052;-77
2022/06/08 08:49:19;;;;;;;7.55;4.13;;;;;;;25.91;42.84;98914.03;5039346;28;20045;-77
2022/06/08 08:52:10;;;;;;;7.15;5.10;;;;;;;25.64;41.57;98900.88;5031754;28;20029;-75
2022/06/08 08:54:40;;;;;;;8.43;4.45;;;;;;;26.02;41.57;98907.97;5031824;28;20050;-75
2022/06/08 08:57:11;;;;;;;6.95;4.20;;;;;;;26.03;40.77;98913.25;5032393;28;20405;-75
2022/06/08 08:59:41;;;;;;;4.78;3.67;;;;;;;25.97;40.50;98909.34;5032592;28;20033;-75
2022/06/08 09:03:14;;;;;;;5.03;4.18;;;;;;;26.15;40.60;98905.16;5027952;28;20105;-75
2022/06/08 09:05:34;;;;;;;6.90;4.45;;;;;;;26.30;40.16;98900.59;5024469;28;20026;-76
2022/06/08 09:08:00;;;;;;;11.38;4.85;;;;;;;26.41;41.03;98896.59;5011885;28;20037;-76
2022/06/08 09:10:26;;;;;;;8.57;4.55;;;;;;;26.57;39.88;98905.06;5029298;28;20089;-74
2022/06/08 09:12:52;;;;;;;5.85;4.05;;;;;;;26.58;39.46;98885.81;5026847;28;20120;-74
2022/06/08 09:15:47;;;;;;;7.22;4.75;;;;;;;26.57;39.56;98889.94;5029600;28;20433;-76
2022/06/08 09:18:29;;;;;;;7.38;5.35;;;;;;;26.52;40.79;98881.91;5028504;28;20029;-77
2022/06/08 09:20:54;;;;;;;6.80;5.03;;;;;;;26.65;40.18;98888.44;5030384;28;20376;-76
2022/06/08 09:23:26;;;;;;;8.20;3.72;;;;;;;26.94;38.35;98890.38;5027681;28;20040;-77
2022/06/08 09:26:14;;;;;;;4.25;3.67;;;;;;;26.96;36.50;98879.25;5024552;28;20025;-78
2022/06/08 09:28:41;;;;;;;12.15;4.10;;;;;;;27.03;36.88;98869.59;5029052;28;20420;-75
2022/06/08 09:31:23;;;;;;;11.60;3.22;;;;;;;27.17;35.05;98879.75;5027006;28;20404;-78
2022/06/08 09:33:49;;;;;;;7.60;3.50;;;;;;;26.48;35.78;98882.84;5037804;28;20026;-78
2022/06/08 09:36:27;;;;;;;6.68;3.83;;;;;;;26.18;38.47;98875.56;5027024;28;20042;-77
2022/06/08 09:38:54;;;;;;;4.10;3.58;;;;;;;26.51;36.52;98866.78;5027152;28;20068;-79
2022/06/08 09:41:38;;;;;;;12.15;5.18;;;;;;;27.13;36.60;98868.41;5025467;28;20029;-77
2022/06/08 09:44:26;;;;;;;5.97;4.63;;;;;;;27.23;37.13;98868.50;5023249;28;20409;-74
2022/06/08 09:53:16;;;;;;;8.10;4.40;;;;;;;27.18;37.37;98855.53;5029260;28;20064;-74
2022/06/08 09:55:53;;;;;;;10.07;3.40;;;;;;;27.33;35.60;98853.75;5029806;28;20571;-74
2022/06/08 09:58:28;;;;;;;7.30;3.85;;;;;;;27.50;35.89;98850.66;5029408;28;20522;-75
2022/06/08 10:00:59;;;;;;;7.03;3.00;;;;;;;27.86;34.24;98849.34;5030186;28;20591;-75
2022/06/08 10:03:42;;;;;;;3.45;2.97;;;;;;;27.73;35.36;98837.13;5021043;28;20087;-75
2022/06/08 10:06:26;;;;;;;6.22;3.42;;;;;;;27.75;33.47;98840.34;5027965;28;20382;-75
2022/06/08 10:09:39;;;;;;;4.25;3.40;;;;;;;28.02;34.59;98838.91;5025700;28;20033;-74
2022/06/08 10:12:25;;;;;;;8.73;3.60;;;;;;;28.06;36.47;98845.31;4981996;28;20049;-74
2022/06/08 10:15:04;;;;;;;5.68;3.28;;;;;;;28.15;32.46;98836.75;5025663;28;20465;-74
2022/06/08 10:17:39;;;;;;;4.80;3.28;;;;;;;27.75;33.17;98825.97;5029559;28;20041;-74
2022/06/08 10:20:05;;;;;;;7.72;4.05;;;;;;;27.95;33.81;98830.56;5028285;28;20045;-75
2022/06/08 10:22:42;;;;;;;10.65;3.25;;;;;;;28.11;33.68;98829.53;5029697;28;20473;-75
2022/06/08 10:25:22;;;;;;;3.85;3.38;;;;;;;28.10;32.79;98814.34;5025881;28;20017;-75
2022/06/08 10:28:04;;;;;;;7.57;3.15;;;;;;;28.23;33.07;98820.03;5029703;28;20034;-75
2022/06/08 10:30:38;;;;;;;4.55;3.30;;;;;;;28.24;34.50;98813.00;5018259;28;20208;-75
2022/06/08 10:33:19;;;;;;;4.32;3.22;;;;;;;28.63;34.10;98806.09;5030019;28;20508;-75
2022/06/08 10:35:52;;;;;;;3.25;2.95;;;;;;;28.47;33.06;98815.78;5030658;28;20045;-77
2022/06/08 10:38:32;;;;;;;13.30;3.30;;;;;;;28.31;32.92;98797.53;5031455;28;20032;-76
2022/06/08 10:41:04;;;;;;;;;;;;;;;28.32;34.20;98793.38;5027775;28;20473;-76
2022/06/08 10:43:34;;;;;;;9.00;3.33;;;;;;;28.38;33.66;98773.44;5029235;28;19917;-76
2022/06/08 10:46:28;;;;;;;4.70;3.10;;;;;;;28.62;33.45;98790.91;5027674;28;20017;-77
2022/06/08 10:48:54;;;;;;;12.18;2.92;;;;;;;28.74;33.83;98786.28;5023740;28;20025;-76
2022/06/08 10:51:27;;;;;;;5.47;2.92;;;;;;;28.79;33.03;98773.34;5032175;28;20533;-76
2022/06/08 10:56:38;;;;;;;3.38;2.92;;;;;;;28.95;32.85;98773.06;5027599;28;20028;-79
2022/06/08 10:59:07;;;;;;;9.30;3.28;;;;;;;28.93;33.63;98769.88;5027222;28;20100;-78
2022/06/08 11:01:58;;;;;;;8.10;2.63;;;;;;;28.93;32.24;98767.00;5031051;28;20029;-87
2022/06/08 11:04:29;;;;;;;6.00;3.17;;;;;;;28.79;32.41;98768.41;5038984;28;20025;-84
2022/06/08 11:07:09;;;;;;;3.45;2.75;;;;;;;28.56;32.20;98758.28;5036665;28;20101;-79
2022/06/08 11:09:34;;;;;;;2.88;2.60;;;;;;;28.39;32.60;98758.59;5034544;28;20147;-86
2022/06/08 11:12:04;;;;;;;4.05;2.50;;;;;;;28.34;31.01;98756.34;5035211;28;20056;-79
2022/06/08 11:14:58;;;;;;;9.23;3.15;;;;;;;28.61;32.36;98739.63;5033158;28;20032;-81
2022/06/08 11:17:27;;;;;;;6.28;2.88;;;;;;;28.60;32.09;98738.84;5034895;28;20108;-80
2022/06/08 11:20:05;;;;;;;3.83;2.87;;;;;;;28.65;32.87;98737.38;5026159;28;20111;-78
2022/06/08 11:22:38;;;;;;;2.80;2.47;;;;;;;28.77;32.48;98745.03;5028659;28;20030;-76
2022/06/08 11:25:17;;;;;;;2.65;2.28;;;;;;;28.69;33.46;98735.94;5032540;28;20408;-80
2022/06/08 11:27:43;;;;;;;5.50;2.20;;;;;;;28.98;32.17;98731.84;5017512;28;20088;-77
2022/06/08 11:30:21;;;;;;;3.85;2.75;;;;;;;29.24;32.49;98734.34;5033429;28;20175;-74
2022/06/08 11:32:52;;;;;;;2.65;2.38;;;;;;;29.47;31.39;98729.22;5031183;28;20048;-77
2022/06/08 11:35:42;;;;;;;2.80;2.15;;;;;;;29.78;31.59;98731.03;5030788;28;20118;-80
2022/06/08 11:38:17;;;;;;;9.52;2.28;;;;;;;29.75;30.75;98737.00;5033167;28;20033;-76
2022/06/08 11:40:43;;;;;;;10.10;2.53;;;;;;;29.45;31.23;98726.03;5032968;28;20488;-78
2022/06/08 11:43:17;;;;;;;10.18;3.60;;;;;;;29.23;32.11;98727.00;5033993;28;20048;-80
2022/06/08 11:45:47;;;;;;;4.90;2.42;;;;;;;29.14;31.77;98730.69;5031384;28;20034;-82
2022/06/08 11:48:21;;;;;;;;;;;;;;;29.33;32.10;98736.41;5029716;28;20037;-80
2022/06/08 11:51:27;;;;;;;4.32;2.50;;;;;;;29.23;32.24;98729.06;5034442;28;19963;-78
2022/06/08 11:53:52;;;;;;;10.30;2.75;;;;;;;29.22;33.22;98722.53;5033699;28;20032;-80
2022/06/08 11:56:32;;;;;;;5.43;2.95;;;;;;;29.27;31.81;98718.22;5031439;28;20408;-79
2022/06/08 11:59:00;;;;;;;3.03;2.63;;;;;;;29.50;31.15;98716.72;5031286;28;20036;-75
2022/06/08 12:01:42;;;;;;;2.42;2.00;;;;;;;29.47;30.33;98711.94;5027814;28;20045;-81
2022/06/08 12:04:22;;;;;;;3.88;2.13;;;;;;;29.74;30.85;98710.25;5032622;28;20095;-78